sensor_id;sensor_type;location;lat;lon;timestamp;pressure;altitude;pressure_sealevel;temperature
69857;BMP280;57147;53.582;10.112;2023-02-18T00:04:08;101482.97;;;5.73
69857;BMP280;57147;53.582;10.112;2023-02-18T00:09:09;101479.84;;;5.76
69857;BMP280;57147;53.582;10.112;2023-02-18T00:14:12;101480.66;;;5.76
69857;BMP280;57147;53.582;10.112;2023-02-18T00:19:17;101470.38;;;5.75
69857;BMP280;57147;53.582;10.112;2023-02-18T00:24:18;101496.56;;;5.82
69857;BMP280;57147;53.582;10.112;2023-02-18T00:29:19;101491.28;;;5.82
69857;BMP280;57147;53.582;10.112;2023-02-18T00:34:22;101503.84;;;5.91
69857;BMP280;57147;53.582;10.112;2023-02-18T00:39:23;101510.31;;;5.84
69857;BMP280;57147;53.582;10.112;2023-02-18T00:44:24;101510.44;;;5.77
69857;BMP280;57147;53.582;10.112;2023-02-18T00:49:27;101516.75;;;5.76
69857;BMP280;57147;53.582;10.112;2023-02-18T00:54:28;101516.22;;;5.74
69857;BMP280;57147;53.582;10.112;2023-02-18T00:59:28;101518.59;;;5.75
69857;BMP280;57147;53.582;10.112;2023-02-18T01:04:32;101521.47;;;5.74
69857;BMP280;57147;53.582;10.112;2023-02-18T01:09:32;101526.25;;;5.77
69857;BMP280;57147;53.582;10.112;2023-02-18T01:14:33;101526.75;;;5.74
69857;BMP280;57147;53.582;10.112;2023-02-18T01:19:36;101521.28;;;5.64
69857;BMP280;57147;53.582;10.112;2023-02-18T01:24:37;101525.53;;;5.65
69857;BMP280;57147;53.582;10.112;2023-02-18T01:29:38;101524.84;;;5.69
69857;BMP280;57147;53.582;10.112;2023-02-18T01:34:41;101522.59;;;5.61
69857;BMP280;57147;53.582;10.112;2023-02-18T01:39:42;101527.16;;;5.54
69857;BMP280;57147;53.582;10.112;2023-02-18T01:44:43;101523.84;;;5.59
69857;BMP280;57147;53.582;10.112;2023-02-18T01:49:49;101511.28;;;5.37
69857;BMP280;57147;53.582;10.112;2023-02-18T01:54:55;101520.31;;;5.42
69857;BMP280;57147;53.582;10.112;2023-02-18T01:59:59;101496.78;;;5.35
69857;BMP280;57147;53.582;10.112;2023-02-18T02:05:06;101505.09;;;5.44
69857;BMP280;57147;53.582;10.112;2023-02-18T02:10:08;101509.91;;;5.47
69857;BMP280;57147;53.582;10.112;2023-02-18T02:15:23;101500.97;;;5.48
69857;BMP280;57147;53.582;10.112;2023-02-18T02:20:56;101500.97;;;5.48
69857;BMP280;57147;53.582;10.112;2023-02-18T02:32:00;101514.38;;;5.46
69857;BMP280;57147;53.582;10.112;2023-02-18T02:37:13;101504.19;;;5.50
69857;BMP280;57147;53.582;10.112;2023-02-18T02:42:19;101496.16;;;5.45
69857;BMP280;57147;53.582;10.112;2023-02-18T02:47:30;101481.34;;;5.55
69857;BMP280;57147;53.582;10.112;2023-02-18T02:52:38;101482.88;;;5.39
69857;BMP280;57147;53.582;10.112;2023-02-18T02:57:47;101478.56;;;5.33
69857;BMP280;57147;53.582;10.112;2023-02-18T03:03:23;101470.88;;;5.44
69857;BMP280;57147;53.582;10.112;2023-02-18T03:08:38;101469.09;;;5.61
69857;BMP280;57147;53.582;10.112;2023-02-18T03:13:52;101458.91;;;5.53
69857;BMP280;57147;53.582;10.112;2023-02-18T03:19:01;101467.94;;;5.57
69857;BMP280;57147;53.582;10.112;2023-02-18T03:24:09;101474.13;;;5.62
69857;BMP280;57147;53.582;10.112;2023-02-18T03:29:14;101463.31;;;5.64
69857;BMP280;57147;53.582;10.112;2023-02-18T03:34:19;101460.16;;;5.62
69857;BMP280;57147;53.582;10.112;2023-02-18T03:39:24;101467.94;;;5.57
69857;BMP280;57147;53.582;10.112;2023-02-18T03:44:25;101471.28;;;5.52
69857;BMP280;57147;53.582;10.112;2023-02-18T03:49:26;101475.09;;;5.45
69857;BMP280;57147;53.582;10.112;2023-02-18T03:54:29;101466.34;;;5.56
69857;BMP280;57147;53.582;10.112;2023-02-18T03:59:29;101449.97;;;5.54
69857;BMP280;57147;53.582;10.112;2023-02-18T04:04:30;101466.34;;;5.56
69857;BMP280;57147;53.582;10.112;2023-02-18T04:09:33;101460.00;;;5.68
69857;BMP280;57147;53.582;10.112;2023-02-18T04:14:34;101471.66;;;5.72
69857;BMP280;57147;53.582;10.112;2023-02-18T04:19:35;101461.19;;;5.61
69857;BMP280;57147;53.582;10.112;2023-02-18T04:24:38;101463.31;;;5.47
69857;BMP280;57147;53.582;10.112;2023-02-18T04:29:38;101473.50;;;5.44
69857;BMP280;57147;53.582;10.112;2023-02-18T04:34:39;101468.97;;;5.56
69857;BMP280;57147;53.582;10.112;2023-02-18T04:39:42;101459.03;;;5.58
69857;BMP280;57147;53.582;10.112;2023-02-18T04:44:43;101469.94;;;5.50
69857;BMP280;57147;53.582;10.112;2023-02-18T04:49:43;101478.13;;;5.36
69857;BMP280;57147;53.582;10.112;2023-02-18T04:54:47;101485.91;;;5.31
69857;BMP280;57147;53.582;10.112;2023-02-18T04:59:47;101487.03;;;5.35
69857;BMP280;57147;53.582;10.112;2023-02-18T05:04:48;101476.59;;;5.41
69857;BMP280;57147;53.582;10.112;2023-02-18T05:09:51;101471.44;;;5.46
69857;BMP280;57147;53.582;10.112;2023-02-18T05:14:52;101473.84;;;5.47
69857;BMP280;57147;53.582;10.112;2023-02-18T05:19:52;101522.63;;;5.38
69857;BMP280;57147;53.582;10.112;2023-02-18T05:24:55;101519.91;;;5.33
69857;BMP280;57147;53.582;10.112;2023-02-18T05:29:56;101535.34;;;5.29
69857;BMP280;57147;53.582;10.112;2023-02-18T05:34:56;101548.66;;;5.23
69857;BMP280;57147;53.582;10.112;2023-02-18T05:40:00;101545.44;;;5.32
69857;BMP280;57147;53.582;10.112;2023-02-18T05:45:00;101534.00;;;5.15
69857;BMP280;57147;53.582;10.112;2023-02-18T05:50:01;101536.53;;;5.22
69857;BMP280;57147;53.582;10.112;2023-02-18T05:55:05;101533.34;;;5.08
69857;BMP280;57147;53.582;10.112;2023-02-18T06:00:07;101543.06;;;5.19
69857;BMP280;57147;53.582;10.112;2023-02-18T06:05:08;101559.41;;;5.21
69857;BMP280;57147;53.582;10.112;2023-02-18T06:10:11;101537.66;;;5.14
69857;BMP280;57147;53.582;10.112;2023-02-18T06:15:12;101519.59;;;5.06
69857;BMP280;57147;53.582;10.112;2023-02-18T06:20:13;101512.41;;;4.90
69857;BMP280;57147;53.582;10.112;2023-02-18T06:25:16;101516.97;;;4.94
69857;BMP280;57147;53.582;10.112;2023-02-18T06:30:17;101510.44;;;4.97
69857;BMP280;57147;53.582;10.112;2023-02-18T06:35:17;101516.88;;;4.78
69857;BMP280;57147;53.582;10.112;2023-02-18T06:40:21;101512.97;;;4.69
69857;BMP280;57147;53.582;10.112;2023-02-18T06:45:21;101508.06;;;4.72
69857;BMP280;57147;53.582;10.112;2023-02-18T06:50:22;101501.28;;;4.88
69857;BMP280;57147;53.582;10.112;2023-02-18T06:55:26;101474.66;;;4.96
69857;BMP280;57147;53.582;10.112;2023-02-18T07:00:26;101472.63;;;5.26
69857;BMP280;57147;53.582;10.112;2023-02-18T07:05:27;101447.44;;;5.30
69857;BMP280;57147;53.582;10.112;2023-02-18T07:10:30;101419.91;;;5.50
69857;BMP280;57147;53.582;10.112;2023-02-18T07:15:31;101414.13;;;5.53
69857;BMP280;57147;53.582;10.112;2023-02-18T07:20:31;101404.25;;;5.60
69857;BMP280;57147;53.582;10.112;2023-02-18T07:25:38;101420.38;;;5.80
69857;BMP280;57147;53.582;10.112;2023-02-18T07:30:39;101401.56;;;5.88
69857;BMP280;57147;53.582;10.112;2023-02-18T07:35:39;101376.16;;;5.99
69857;BMP280;57147;53.582;10.112;2023-02-18T07:40:44;101336.84;;;5.97
69857;BMP280;57147;53.582;10.112;2023-02-18T07:45:48;101280.31;;;5.88
69857;BMP280;57147;53.582;10.112;2023-02-18T07:50:49;101310.16;;;6.10
69857;BMP280;57147;53.582;10.112;2023-02-18T07:55:52;101277.22;;;6.13
69857;BMP280;57147;53.582;10.112;2023-02-18T08:00:53;101262.69;;;6.10
69857;BMP280;57147;53.582;10.112;2023-02-18T08:05:55;101244.41;;;6.26
69857;BMP280;57147;53.582;10.112;2023-02-18T08:11:00;101216.34;;;6.15
69857;BMP280;57147;53.582;10.112;2023-02-18T08:16:01;101212.16;;;6.19
69857;BMP280;57147;53.582;10.112;2023-02-18T08:21:01;101211.47;;;6.28
69857;BMP280;57147;53.582;10.112;2023-02-18T08:26:05;101208.25;;;6.48
69857;BMP280;57147;53.582;10.112;2023-02-18T08:31:06;101194.66;;;6.61
69857;BMP280;57147;53.582;10.112;2023-02-18T08:36:08;101172.50;;;6.57
69857;BMP280;57147;53.582;10.112;2023-02-18T08:41:11;101206.41;;;6.75
69857;BMP280;57147;53.582;10.112;2023-02-18T08:46:13;101187.88;;;6.70
69857;BMP280;57147;53.582;10.112;2023-02-18T08:51:15;101177.78;;;6.62
69857;BMP280;57147;53.582;10.112;2023-02-18T08:56:19;101143.41;;;6.52
69857;BMP280;57147;53.582;10.112;2023-02-18T09:01:22;101153.63;;;6.75
69857;BMP280;57147;53.582;10.112;2023-02-18T09:06:22;101135.19;;;6.80
69857;BMP280;57147;53.582;10.112;2023-02-18T09:11:26;101130.53;;;6.93
69857;BMP280;57147;53.582;10.112;2023-02-18T09:16:26;101082.75;;;6.94
69857;BMP280;57147;53.582;10.112;2023-02-18T09:21:27;101073.59;;;7.07
69857;BMP280;57147;53.582;10.112;2023-02-18T09:26:30;101046.69;;;7.15
69857;BMP280;57147;53.582;10.112;2023-02-18T09:31:31;101045.69;;;7.21
69857;BMP280;57147;53.582;10.112;2023-02-18T09:36:32;101027.16;;;7.16
69857;BMP280;57147;53.582;10.112;2023-02-18T09:41:38;101012.91;;;7.17
69857;BMP280;57147;53.582;10.112;2023-02-18T09:46:47;101018.19;;;7.17
69857;BMP280;57147;53.582;10.112;2023-02-18T09:51:49;101015.84;;;7.26
69857;BMP280;57147;53.582;10.112;2023-02-18T09:56:52;100996.81;;;7.18
69857;BMP280;57147;53.582;10.112;2023-02-18T10:01:53;100984.41;;;7.19
69857;BMP280;57147;53.582;10.112;2023-02-18T10:06:55;100956.38;;;7.13
69857;BMP280;57147;53.582;10.112;2023-02-18T10:12:06;100968.00;;;7.12
69857;BMP280;57147;53.582;10.112;2023-02-18T10:17:13;100949.00;;;7.15
69857;BMP280;57147;53.582;10.112;2023-02-18T10:22:15;100954.78;;;7.12
69857;BMP280;57147;53.582;10.112;2023-02-18T10:27:23;100959.94;;;6.76
69857;BMP280;57147;53.582;10.112;2023-02-18T10:32:27;100948.34;;;6.77
69857;BMP280;57147;53.582;10.112;2023-02-18T10:37:39;100933.59;;;6.86
69857;BMP280;57147;53.582;10.112;2023-02-18T10:42:56;100913.84;;;7.04
69857;BMP280;57147;53.582;10.112;2023-02-18T10:48:10;100908.34;;;7.11
69857;BMP280;57147;53.582;10.112;2023-02-18T10:53:17;100903.13;;;7.31
69857;BMP280;57147;53.582;10.112;2023-02-18T10:58:30;100873.50;;;7.49
69857;BMP280;57147;53.582;10.112;2023-02-18T11:03:40;100868.47;;;7.63
69857;BMP280;57147;53.582;10.112;2023-02-18T11:08:43;100871.41;;;7.67
69857;BMP280;57147;53.582;10.112;2023-02-18T11:13:55;100863.97;;;7.63
69857;BMP280;57147;53.582;10.112;2023-02-18T11:18:56;100790.00;;;7.53
69857;BMP280;57147;53.582;10.112;2023-02-18T11:24:05;100891.47;;;7.57
69857;BMP280;57147;53.582;10.112;2023-02-18T11:29:14;100827.00;;;7.58
69857;BMP280;57147;53.582;10.112;2023-02-18T11:34:20;100759.09;;;7.64
69857;BMP280;57147;53.582;10.112;2023-02-18T11:39:23;100725.75;;;7.73
69857;BMP280;57147;53.582;10.112;2023-02-18T11:44:30;100732.41;;;7.71
69857;BMP280;57147;53.582;10.112;2023-02-18T11:49:33;100747.13;;;7.82
69857;BMP280;57147;53.582;10.112;2023-02-18T11:54:35;100794.22;;;7.80
69857;BMP280;57147;53.582;10.112;2023-02-18T11:59:39;100833.31;;;7.83
69857;BMP280;57147;53.582;10.112;2023-02-18T12:04:42;100857.66;;;7.59
69857;BMP280;57147;53.582;10.112;2023-02-18T12:09:48;100786.56;;;7.78
69857;BMP280;57147;53.582;10.112;2023-02-18T12:14:53;100800.22;;;8.06
69857;BMP280;57147;53.582;10.112;2023-02-18T12:20:03;100912.59;;;8.18
69857;BMP280;57147;53.582;10.112;2023-02-18T12:25:24;100888.78;;;8.18
69857;BMP280;57147;53.582;10.112;2023-02-18T12:30:44;100894.09;;;8.08
69857;BMP280;57147;53.582;10.112;2023-02-18T12:36:06;100937.47;;;8.07
69857;BMP280;57147;53.582;10.112;2023-02-18T12:41:16;101019.97;;;8.09
69857;BMP280;57147;53.582;10.112;2023-02-18T12:46:37;101000.91;;;8.02
69857;BMP280;57147;53.582;10.112;2023-02-18T12:51:47;100953.84;;;7.84
69857;BMP280;57147;53.582;10.112;2023-02-18T12:57:25;100976.59;;;7.85
69857;BMP280;57147;53.582;10.112;2023-02-18T13:02:51;100904.69;;;7.83
69857;BMP280;57147;53.582;10.112;2023-02-18T13:08:05;101044.81;;;7.88
69857;BMP280;57147;53.582;10.112;2023-02-18T13:13:12;101116.19;;;7.88
69857;BMP280;57147;53.582;10.112;2023-02-18T13:18:20;101176.91;;;7.73
69857;BMP280;57147;53.582;10.112;2023-02-18T13:23:25;101155.81;;;7.78
69857;BMP280;57147;53.582;10.112;2023-02-18T13:28:33;101158.41;;;7.73
69857;BMP280;57147;53.582;10.112;2023-02-18T13:33:43;101213.41;;;7.71
69857;BMP280;57147;53.582;10.112;2023-02-18T13:38:52;101247.72;;;7.66
69857;BMP280;57147;53.582;10.112;2023-02-18T13:43:56;101206.22;;;7.61
69857;BMP280;57147;53.582;10.112;2023-02-18T13:49:09;101165.47;;;7.57
69857;BMP280;57147;53.582;10.112;2023-02-18T13:54:17;101170.53;;;7.63
69857;BMP280;57147;53.582;10.112;2023-02-18T13:59:21;101185.59;;;7.63
69857;BMP280;57147;53.582;10.112;2023-02-18T14:04:50;101212.47;;;7.40
69857;BMP280;57147;53.582;10.112;2023-02-18T14:09:52;101266.34;;;7.07
69857;BMP280;57147;53.582;10.112;2023-02-18T14:14:53;101290.47;;;6.89
69857;BMP280;57147;53.582;10.112;2023-02-18T14:20:26;101313.47;;;6.66
69857;BMP280;57147;53.582;10.112;2023-02-18T14:25:39;101317.53;;;6.52
69857;BMP280;57147;53.582;10.112;2023-02-18T14:30:41;101361.84;;;6.11
69857;BMP280;57147;53.582;10.112;2023-02-18T14:35:47;101350.66;;;6.04
69857;BMP280;57147;53.582;10.112;2023-02-18T14:41:10;101394.03;;;5.97
69857;BMP280;57147;53.582;10.112;2023-02-18T14:46:26;101372.03;;;5.69
69857;BMP280;57147;53.582;10.112;2023-02-18T14:51:33;101354.44;;;5.58
69857;BMP280;57147;53.582;10.112;2023-02-18T14:56:46;101333.84;;;5.72
69857;BMP280;57147;53.582;10.112;2023-02-18T15:01:53;101357.16;;;5.47
69857;BMP280;57147;53.582;10.112;2023-02-18T15:07:08;101336.31;;;5.45
69857;BMP280;57147;53.582;10.112;2023-02-18T15:12:09;101210.13;;;5.27
69857;BMP280;57147;53.582;10.112;2023-02-18T15:17:13;101226.72;;;5.61
69857;BMP280;57147;53.582;10.112;2023-02-18T15:22:19;101255.63;;;5.56
69857;BMP280;57147;53.582;10.112;2023-02-18T15:27:23;101231.28;;;5.87
69857;BMP280;57147;53.582;10.112;2023-02-18T15:32:27;101264.28;;;5.73
69857;BMP280;57147;53.582;10.112;2023-02-18T15:37:31;101196.13;;;5.21
69857;BMP280;57147;53.582;10.112;2023-02-18T15:42:35;101234.25;;;5.35
69857;BMP280;57147;53.582;10.112;2023-02-18T15:47:40;101487.09;;;5.52
69857;BMP280;57147;53.582;10.112;2023-02-18T15:52:44;101520.69;;;5.33
69857;BMP280;57147;53.582;10.112;2023-02-18T15:57:45;101524.72;;;5.36
69857;BMP280;57147;53.582;10.112;2023-02-18T16:02:53;101358.56;;;5.37
69857;BMP280;57147;53.582;10.112;2023-02-18T16:08:00;101322.81;;;5.42
69857;BMP280;57147;53.582;10.112;2023-02-18T16:13:02;101327.38;;;5.46
69857;BMP280;57147;53.582;10.112;2023-02-18T16:18:04;101339.56;;;5.86
69857;BMP280;57147;53.582;10.112;2023-02-18T16:23:11;101349.31;;;5.85
69857;BMP280;57147;53.582;10.112;2023-02-18T16:28:14;101335.53;;;5.61
69857;BMP280;57147;53.582;10.112;2023-02-18T16:33:15;101311.09;;;5.66
69857;BMP280;57147;53.582;10.112;2023-02-18T16:38:21;101294.25;;;5.50
69857;BMP280;57147;53.582;10.112;2023-02-18T16:43:23;101327.63;;;5.45
69857;BMP280;57147;53.582;10.112;2023-02-18T16:48:28;101344.94;;;5.57
69857;BMP280;57147;53.582;10.112;2023-02-18T16:53:32;101354.28;;;5.65
69857;BMP280;57147;53.582;10.112;2023-02-18T16:58:33;101369.75;;;5.45
69857;BMP280;57147;53.582;10.112;2023-02-18T17:03:33;101359.22;;;5.16
69857;BMP280;57147;53.582;10.112;2023-02-18T17:08:37;101378.06;;;5.25
69857;BMP280;57147;53.582;10.112;2023-02-18T17:13:39;101398.72;;;5.16
69857;BMP280;57147;53.582;10.112;2023-02-18T17:18:39;101396.25;;;4.98
69857;BMP280;57147;53.582;10.112;2023-02-18T17:23:43;101420.72;;;4.98
69857;BMP280;57147;53.582;10.112;2023-02-18T17:28:44;101409.25;;;5.16
69857;BMP280;57147;53.582;10.112;2023-02-18T17:33:45;101674.03;;;5.24
69857;BMP280;57147;53.582;10.112;2023-02-18T17:38:48;101682.47;;;5.37
69857;BMP280;57147;53.582;10.112;2023-02-18T17:43:49;101476.31;;;5.14
69857;BMP280;57147;53.582;10.112;2023-02-18T17:48:49;101478.81;;;5.32
69857;BMP280;57147;53.582;10.112;2023-02-18T17:53:53;101424.69;;;5.13
69857;BMP280;57147;53.582;10.112;2023-02-18T17:58:53;101407.56;;;4.98
69857;BMP280;57147;53.582;10.112;2023-02-18T18:03:54;101415.91;;;5.07
69857;BMP280;57147;53.582;10.112;2023-02-18T18:08:58;101451.25;;;5.23
69857;BMP280;57147;53.582;10.112;2023-02-18T18:13:58;101473.22;;;5.17
69857;BMP280;57147;53.582;10.112;2023-02-18T18:18:59;101439.91;;;4.71
69857;BMP280;57147;53.582;10.112;2023-02-18T18:24:03;101464.94;;;4.85
69857;BMP280;57147;53.582;10.112;2023-02-18T18:29:04;101482.28;;;4.97
69857;BMP280;57147;53.582;10.112;2023-02-18T18:34:08;101489.06;;;4.70
69857;BMP280;57147;53.582;10.112;2023-02-18T18:39:17;101494.91;;;4.72
69857;BMP280;57147;53.582;10.112;2023-02-18T18:44:18;101509.00;;;4.78
69857;BMP280;57147;53.582;10.112;2023-02-18T18:49:18;101518.72;;;4.65
69857;BMP280;57147;53.582;10.112;2023-02-18T18:54:22;101516.41;;;4.57
69857;BMP280;57147;53.582;10.112;2023-02-18T18:59:22;101517.56;;;4.61
69857;BMP280;57147;53.582;10.112;2023-02-18T19:04:23;101521.88;;;4.44
69857;BMP280;57147;53.582;10.112;2023-02-18T19:09:26;101540.28;;;4.44
69857;BMP280;57147;53.582;10.112;2023-02-18T19:14:27;101544.81;;;4.67
69857;BMP280;57147;53.582;10.112;2023-02-18T19:19:27;101534.72;;;4.52
69857;BMP280;57147;53.582;10.112;2023-02-18T19:24:31;101538.66;;;4.32
69857;BMP280;57147;53.582;10.112;2023-02-18T19:29:31;101553.94;;;4.53
69857;BMP280;57147;53.582;10.112;2023-02-18T19:34:32;101559.56;;;4.38
69857;BMP280;57147;53.582;10.112;2023-02-18T19:39:36;101552.53;;;4.50
69857;BMP280;57147;53.582;10.112;2023-02-18T19:44:36;101537.72;;;4.26
69857;BMP280;57147;53.582;10.112;2023-02-18T19:49:37;101548.38;;;4.31
69857;BMP280;57147;53.582;10.112;2023-02-18T19:54:40;101556.41;;;4.06
69857;BMP280;57147;53.582;10.112;2023-02-18T19:59:41;101561.31;;;4.44
69857;BMP280;57147;53.582;10.112;2023-02-18T20:04:42;101595.44;;;4.21
69857;BMP280;57147;53.582;10.112;2023-02-18T20:09:50;101572.81;;;4.20
69857;BMP280;57147;53.582;10.112;2023-02-18T20:14:50;101579.13;;;4.01
69857;BMP280;57147;53.582;10.112;2023-02-18T20:19:51;101581.78;;;4.12
69857;BMP280;57147;53.582;10.112;2023-02-18T20:24:54;101597.66;;;4.06
69857;BMP280;57147;53.582;10.112;2023-02-18T20:29:55;101570.22;;;4.02
69857;BMP280;57147;53.582;10.112;2023-02-18T20:34:56;101590.19;;;4.21
69857;BMP280;57147;53.582;10.112;2023-02-18T20:39:59;101548.94;;;3.91
69857;BMP280;57147;53.582;10.112;2023-02-18T20:45:00;101564.78;;;3.67
69857;BMP280;57147;53.582;10.112;2023-02-18T20:50:00;101575.53;;;3.65
69857;BMP280;57147;53.582;10.112;2023-02-18T20:55:04;101587.78;;;3.53
69857;BMP280;57147;53.582;10.112;2023-02-18T21:00:07;101598.56;;;3.63
69857;BMP280;57147;53.582;10.112;2023-02-18T21:05:08;101601.25;;;3.75
69857;BMP280;57147;53.582;10.112;2023-02-18T21:10:11;101589.66;;;3.64
69857;BMP280;57147;53.582;10.112;2023-02-18T21:15:11;101596.13;;;3.43
69857;BMP280;57147;53.582;10.112;2023-02-18T21:20:12;101594.75;;;3.59
69857;BMP280;57147;53.582;10.112;2023-02-18T21:25:15;101584.00;;;3.67
69857;BMP280;57147;53.582;10.112;2023-02-18T21:30:16;101566.25;;;3.63
69857;BMP280;57147;53.582;10.112;2023-02-18T21:35:17;101576.38;;;3.59
69857;BMP280;57147;53.582;10.112;2023-02-18T21:40:20;101574.66;;;3.53
69857;BMP280;57147;53.582;10.112;2023-02-18T21:45:21;101568.38;;;3.54
69857;BMP280;57147;53.582;10.112;2023-02-18T21:50:24;101563.63;;;3.44
69857;BMP280;57147;53.582;10.112;2023-02-18T21:55:27;101561.97;;;3.50
69857;BMP280;57147;53.582;10.112;2023-02-18T22:00:28;101558.75;;;3.48
69857;BMP280;57147;53.582;10.112;2023-02-18T22:05:29;101576.25;;;3.72
69857;BMP280;57147;53.582;10.112;2023-02-18T22:10:32;101580.91;;;3.88
69857;BMP280;57147;53.582;10.112;2023-02-18T22:15:32;101561.28;;;3.73
69857;BMP280;57147;53.582;10.112;2023-02-18T22:20:33;101582.81;;;3.63
69857;BMP280;57147;53.582;10.112;2023-02-18T22:25:36;101585.28;;;3.58
69857;BMP280;57147;53.582;10.112;2023-02-18T22:30:38;101581.03;;;3.57
69857;BMP280;57147;53.582;10.112;2023-02-18T22:35:38;101577.72;;;3.86
69857;BMP280;57147;53.582;10.112;2023-02-18T22:40:42;101548.94;;;3.91
69857;BMP280;57147;53.582;10.112;2023-02-18T22:45:42;101562.66;;;3.93
69857;BMP280;57147;53.582;10.112;2023-02-18T22:50:43;101559.53;;;4.15
69857;BMP280;57147;53.582;10.112;2023-02-18T22:55:47;101548.97;;;4.33
69857;BMP280;57147;53.582;10.112;2023-02-18T23:00:47;101531.78;;;4.30
69857;BMP280;57147;53.582;10.112;2023-02-18T23:05:48;101518.22;;;4.45
69857;BMP280;57147;53.582;10.112;2023-02-18T23:11:00;101494.78;;;4.32
69857;BMP280;57147;53.582;10.112;2023-02-18T23:16:03;101499.50;;;4.53
69857;BMP280;57147;53.582;10.112;2023-02-18T23:21:06;101435.22;;;4.49
69857;BMP280;57147;53.582;10.112;2023-02-18T23:26:09;101421.47;;;4.24
69857;BMP280;57147;53.582;10.112;2023-02-18T23:31:10;101455.56;;;4.42
69857;BMP280;57147;53.582;10.112;2023-02-18T23:36:12;101444.59;;;4.45
69857;BMP280;57147;53.582;10.112;2023-02-18T23:41:16;101396.13;;;4.41
69857;BMP280;57147;53.582;10.112;2023-02-18T23:46:19;101380.00;;;4.26
69857;BMP280;57147;53.582;10.112;2023-02-18T23:51:21;101427.66;;;4.41
69857;BMP280;57147;53.582;10.112;2023-02-18T23:56:26;101413.03;;;4.45
